sensor_id;sensor_type;location;lat;lon;timestamp;P1;durP1;ratioP1;P2;durP2;ratioP2
45049;SDS011;61798;48.048;-1.928;2023-04-15T00:01:53;2.65;;;0.80;;
45049;SDS011;61798;48.048;-1.928;2023-04-15T00:04:02;1.83;;;0.82;;
45049;SDS011;61798;48.048;-1.928;2023-04-15T00:06:10;5.30;;;1.10;;
45049;SDS011;61798;48.048;-1.928;2023-04-15T00:08:18;4.32;;;0.90;;
45049;SDS011;61798;48.048;-1.928;2023-04-15T00:10:26;7.15;;;0.95;;
45049;SDS011;61798;48.048;-1.928;2023-04-15T00:12:33;6.47;;;1.10;;
45049;SDS011;61798;48.048;-1.928;2023-04-15T00:14:40;3.67;;;0.90;;
45049;SDS011;61798;48.048;-1.928;2023-04-15T00:16:46;3.97;;;0.90;;
45049;SDS011;61798;48.048;-1.928;2023-04-15T00:19:01;4.38;;;1.05;;
45049;SDS011;61798;48.048;-1.928;2023-04-15T00:21:07;4.22;;;0.93;;
45049;SDS011;61798;48.048;-1.928;2023-04-15T00:23:15;6.18;;;0.88;;
45049;SDS011;61798;48.048;-1.928;2023-04-15T00:25:22;1.27;;;0.57;;
45049;SDS011;61798;48.048;-1.928;2023-04-15T00:27:30;6.03;;;1.00;;
45049;SDS011;61798;48.048;-1.928;2023-04-15T00:29:37;3.50;;;0.82;;
45049;SDS011;61798;48.048;-1.928;2023-04-15T00:31:44;1.90;;;0.82;;
45049;SDS011;61798;48.048;-1.928;2023-04-15T00:33:51;2.33;;;0.80;;
45049;SDS011;61798;48.048;-1.928;2023-04-15T00:35:58;8.50;;;1.00;;
45049;SDS011;61798;48.048;-1.928;2023-04-15T00:38:05;5.30;;;1.10;;
45049;SDS011;61798;48.048;-1.928;2023-04-15T00:40:23;6.70;;;1.30;;
45049;SDS011;61798;48.048;-1.928;2023-04-15T00:42:30;8.35;;;1.10;;
45049;SDS011;61798;48.048;-1.928;2023-04-15T00:44:37;3.65;;;0.88;;
45049;SDS011;61798;48.048;-1.928;2023-04-15T00:46:44;4.00;;;1.20;;
45049;SDS011;61798;48.048;-1.928;2023-04-15T00:48:52;5.68;;;1.15;;
45049;SDS011;61798;48.048;-1.928;2023-04-15T00:51:00;1.63;;;0.85;;
45049;SDS011;61798;48.048;-1.928;2023-04-15T00:53:07;4.88;;;1.20;;
45049;SDS011;61798;48.048;-1.928;2023-04-15T00:55:14;5.40;;;1.08;;
45049;SDS011;61798;48.048;-1.928;2023-04-15T00:57:21;4.95;;;1.50;;
45049;SDS011;61798;48.048;-1.928;2023-04-15T00:59:29;2.47;;;1.00;;
45049;SDS011;61798;48.048;-1.928;2023-04-15T01:01:39;6.07;;;0.82;;
45049;SDS011;61798;48.048;-1.928;2023-04-15T01:03:50;4.78;;;1.10;;
45049;SDS011;61798;48.048;-1.928;2023-04-15T01:05:58;3.33;;;1.17;;
45049;SDS011;61798;48.048;-1.928;2023-04-15T01:08:06;3.65;;;1.02;;
45049;SDS011;61798;48.048;-1.928;2023-04-15T01:10:12;5.68;;;1.15;;
45049;SDS011;61798;48.048;-1.928;2023-04-15T01:12:18;4.18;;;0.98;;
45049;SDS011;61798;48.048;-1.928;2023-04-15T01:14:26;3.15;;;1.00;;
45049;SDS011;61798;48.048;-1.928;2023-04-15T01:16:36;3.15;;;0.80;;
45049;SDS011;61798;48.048;-1.928;2023-04-15T01:18:46;2.70;;;1.17;;
45049;SDS011;61798;48.048;-1.928;2023-04-15T01:20:54;7.95;;;1.00;;
45049;SDS011;61798;48.048;-1.928;2023-04-15T01:23:01;2.80;;;1.13;;
45049;SDS011;61798;48.048;-1.928;2023-04-15T01:25:13;5.03;;;0.95;;
45049;SDS011;61798;48.048;-1.928;2023-04-15T01:27:23;3.92;;;0.98;;
45049;SDS011;61798;48.048;-1.928;2023-04-15T01:29:31;6.50;;;1.30;;
45049;SDS011;61798;48.048;-1.928;2023-04-15T01:31:47;5.03;;;0.98;;
45049;SDS011;61798;48.048;-1.928;2023-04-15T01:33:56;3.72;;;1.10;;
45049;SDS011;61798;48.048;-1.928;2023-04-15T01:36:05;3.63;;;1.15;;
45049;SDS011;61798;48.048;-1.928;2023-04-15T01:38:14;5.53;;;1.20;;
45049;SDS011;61798;48.048;-1.928;2023-04-15T01:40:21;5.20;;;1.20;;
45049;SDS011;61798;48.048;-1.928;2023-04-15T01:42:28;6.55;;;1.02;;
45049;SDS011;61798;48.048;-1.928;2023-04-15T01:44:35;1.65;;;0.93;;
45049;SDS011;61798;48.048;-1.928;2023-04-15T01:46:44;3.70;;;1.00;;
45049;SDS011;61798;48.048;-1.928;2023-04-15T01:48:51;4.53;;;1.58;;
45049;SDS011;61798;48.048;-1.928;2023-04-15T01:50:58;1.23;;;0.88;;
45049;SDS011;61798;48.048;-1.928;2023-04-15T01:53:05;2.17;;;0.80;;
45049;SDS011;61798;48.048;-1.928;2023-04-15T01:55:10;2.67;;;0.88;;
45049;SDS011;61798;48.048;-1.928;2023-04-15T01:57:18;3.67;;;1.00;;
45049;SDS011;61798;48.048;-1.928;2023-04-15T01:59:25;4.05;;;1.23;;
45049;SDS011;61798;48.048;-1.928;2023-04-15T02:01:35;5.95;;;1.27;;
45049;SDS011;61798;48.048;-1.928;2023-04-15T02:03:42;3.90;;;1.20;;
45049;SDS011;61798;48.048;-1.928;2023-04-15T02:05:51;4.75;;;1.10;;
45049;SDS011;61798;48.048;-1.928;2023-04-15T02:07:58;3.88;;;1.20;;
45049;SDS011;61798;48.048;-1.928;2023-04-15T02:10:06;3.88;;;1.38;;
45049;SDS011;61798;48.048;-1.928;2023-04-15T02:12:15;5.65;;;1.08;;
45049;SDS011;61798;48.048;-1.928;2023-04-15T02:14:22;5.15;;;0.82;;
45049;SDS011;61798;48.048;-1.928;2023-04-15T02:16:29;3.35;;;1.10;;
45049;SDS011;61798;48.048;-1.928;2023-04-15T02:18:36;8.30;;;1.15;;
45049;SDS011;61798;48.048;-1.928;2023-04-15T02:20:43;3.50;;;1.15;;
45049;SDS011;61798;48.048;-1.928;2023-04-15T02:22:51;4.65;;;1.30;;
45049;SDS011;61798;48.048;-1.928;2023-04-15T02:24:56;2.97;;;1.15;;
45049;SDS011;61798;48.048;-1.928;2023-04-15T02:27:05;3.08;;;1.00;;
45049;SDS011;61798;48.048;-1.928;2023-04-15T02:29:12;3.08;;;1.17;;
45049;SDS011;61798;48.048;-1.928;2023-04-15T02:31:18;9.88;;;1.70;;
45049;SDS011;61798;48.048;-1.928;2023-04-15T02:33:27;5.28;;;1.50;;
45049;SDS011;61798;48.048;-1.928;2023-04-15T02:35:34;5.25;;;1.77;;
45049;SDS011;61798;48.048;-1.928;2023-04-15T02:37:42;12.32;;;1.83;;
45049;SDS011;61798;48.048;-1.928;2023-04-15T02:39:51;9.00;;;1.65;;
45049;SDS011;61798;48.048;-1.928;2023-04-15T02:41:58;3.33;;;1.35;;
45049;SDS011;61798;48.048;-1.928;2023-04-15T02:44:06;5.20;;;1.40;;
45049;SDS011;61798;48.048;-1.928;2023-04-15T02:46:15;6.18;;;1.42;;
45049;SDS011;61798;48.048;-1.928;2023-04-15T02:48:22;2.40;;;1.20;;
45049;SDS011;61798;48.048;-1.928;2023-04-15T02:50:29;4.70;;;1.30;;
45049;SDS011;61798;48.048;-1.928;2023-04-15T02:52:40;3.38;;;1.23;;
45049;SDS011;61798;48.048;-1.928;2023-04-15T02:54:48;6.88;;;1.38;;
45049;SDS011;61798;48.048;-1.928;2023-04-15T02:56:55;5.47;;;1.52;;
45049;SDS011;61798;48.048;-1.928;2023-04-15T02:59:04;5.38;;;1.38;;
45049;SDS011;61798;48.048;-1.928;2023-04-15T03:01:11;9.25;;;1.38;;
45049;SDS011;61798;48.048;-1.928;2023-04-15T03:03:18;7.10;;;1.88;;
45049;SDS011;61798;48.048;-1.928;2023-04-15T03:05:24;1.58;;;1.10;;
45049;SDS011;61798;48.048;-1.928;2023-04-15T03:07:31;9.05;;;1.38;;
45049;SDS011;61798;48.048;-1.928;2023-04-15T03:09:38;2.60;;;1.17;;
45049;SDS011;61798;48.048;-1.928;2023-04-15T03:11:47;10.50;;;1.90;;
45049;SDS011;61798;48.048;-1.928;2023-04-15T03:13:54;5.05;;;1.42;;
45049;SDS011;61798;48.048;-1.928;2023-04-15T03:16:01;4.78;;;1.48;;
45049;SDS011;61798;48.048;-1.928;2023-04-15T03:18:08;4.00;;;1.48;;
45049;SDS011;61798;48.048;-1.928;2023-04-15T03:20:15;3.63;;;1.15;;
45049;SDS011;61798;48.048;-1.928;2023-04-15T03:22:21;3.55;;;1.30;;
45049;SDS011;61798;48.048;-1.928;2023-04-15T03:24:28;4.25;;;1.08;;
45049;SDS011;61798;48.048;-1.928;2023-04-15T03:26:35;7.63;;;1.13;;
45049;SDS011;61798;48.048;-1.928;2023-04-15T03:28:42;7.97;;;1.30;;
45049;SDS011;61798;48.048;-1.928;2023-04-15T03:30:49;5.57;;;1.33;;
45049;SDS011;61798;48.048;-1.928;2023-04-15T03:32:55;5.50;;;1.35;;
45049;SDS011;61798;48.048;-1.928;2023-04-15T03:35:06;6.10;;;1.40;;
45049;SDS011;61798;48.048;-1.928;2023-04-15T03:37:14;4.45;;;1.50;;
45049;SDS011;61798;48.048;-1.928;2023-04-15T03:39:21;6.82;;;1.42;;
45049;SDS011;61798;48.048;-1.928;2023-04-15T03:41:28;6.80;;;1.50;;
45049;SDS011;61798;48.048;-1.928;2023-04-15T03:43:35;11.80;;;1.77;;
45049;SDS011;61798;48.048;-1.928;2023-04-15T03:45:42;3.03;;;1.08;;
45049;SDS011;61798;48.048;-1.928;2023-04-15T03:47:51;5.43;;;1.55;;
45049;SDS011;61798;48.048;-1.928;2023-04-15T03:49:59;3.15;;;1.50;;
45049;SDS011;61798;48.048;-1.928;2023-04-15T03:52:05;6.47;;;1.42;;
45049;SDS011;61798;48.048;-1.928;2023-04-15T03:54:12;5.25;;;1.40;;
45049;SDS011;61798;48.048;-1.928;2023-04-15T03:56:21;8.43;;;1.73;;
45049;SDS011;61798;48.048;-1.928;2023-04-15T03:58:28;5.32;;;1.27;;
45049;SDS011;61798;48.048;-1.928;2023-04-15T04:00:35;5.82;;;1.60;;
45049;SDS011;61798;48.048;-1.928;2023-04-15T04:02:42;5.18;;;1.40;;
45049;SDS011;61798;48.048;-1.928;2023-04-15T04:04:49;6.97;;;1.80;;
45049;SDS011;61798;48.048;-1.928;2023-04-15T04:06:56;6.25;;;1.90;;
45049;SDS011;61798;48.048;-1.928;2023-04-15T04:09:03;9.52;;;1.48;;
45049;SDS011;61798;48.048;-1.928;2023-04-15T04:11:11;7.35;;;1.25;;
45049;SDS011;61798;48.048;-1.928;2023-04-15T04:13:18;4.05;;;1.52;;
45049;SDS011;61798;48.048;-1.928;2023-04-15T04:15:25;4.97;;;1.48;;
45049;SDS011;61798;48.048;-1.928;2023-04-15T04:17:32;5.07;;;1.58;;
45049;SDS011;61798;48.048;-1.928;2023-04-15T04:19:39;4.88;;;1.48;;
45049;SDS011;61798;48.048;-1.928;2023-04-15T04:21:46;5.32;;;1.50;;
45049;SDS011;61798;48.048;-1.928;2023-04-15T04:23:53;4.55;;;1.30;;
45049;SDS011;61798;48.048;-1.928;2023-04-15T04:26:02;12.43;;;2.70;;
45049;SDS011;61798;48.048;-1.928;2023-04-15T04:28:09;3.78;;;1.45;;
45049;SDS011;61798;48.048;-1.928;2023-04-15T04:30:17;7.30;;;1.45;;
45049;SDS011;61798;48.048;-1.928;2023-04-15T04:32:24;3.63;;;1.40;;
45049;SDS011;61798;48.048;-1.928;2023-04-15T04:34:32;5.10;;;1.40;;
45049;SDS011;61798;48.048;-1.928;2023-04-15T04:36:41;4.40;;;1.15;;
45049;SDS011;61798;48.048;-1.928;2023-04-15T04:38:48;3.42;;;1.23;;
45049;SDS011;61798;48.048;-1.928;2023-04-15T04:40:55;3.05;;;1.20;;
45049;SDS011;61798;48.048;-1.928;2023-04-15T04:43:01;7.25;;;1.85;;
45049;SDS011;61798;48.048;-1.928;2023-04-15T04:45:08;7.20;;;2.13;;
45049;SDS011;61798;48.048;-1.928;2023-04-15T04:47:16;5.32;;;1.42;;
45049;SDS011;61798;48.048;-1.928;2023-04-15T04:49:23;5.20;;;1.48;;
45049;SDS011;61798;48.048;-1.928;2023-04-15T04:51:29;9.68;;;1.80;;
45049;SDS011;61798;48.048;-1.928;2023-04-15T04:53:36;6.25;;;1.58;;
45049;SDS011;61798;48.048;-1.928;2023-04-15T04:55:43;6.50;;;1.65;;
45049;SDS011;61798;48.048;-1.928;2023-04-15T04:57:50;4.22;;;1.20;;
45049;SDS011;61798;48.048;-1.928;2023-04-15T04:59:57;5.43;;;1.73;;
45049;SDS011;61798;48.048;-1.928;2023-04-15T05:02:04;6.30;;;1.67;;
45049;SDS011;61798;48.048;-1.928;2023-04-15T05:04:12;6.78;;;1.48;;
45049;SDS011;61798;48.048;-1.928;2023-04-15T05:06:20;4.13;;;1.33;;
45049;SDS011;61798;48.048;-1.928;2023-04-15T05:08:27;10.45;;;1.70;;
45049;SDS011;61798;48.048;-1.928;2023-04-15T05:10:34;3.67;;;1.30;;
45049;SDS011;61798;48.048;-1.928;2023-04-15T05:12:40;7.43;;;1.30;;
45049;SDS011;61798;48.048;-1.928;2023-04-15T05:14:47;5.28;;;1.50;;
45049;SDS011;61798;48.048;-1.928;2023-04-15T05:16:54;9.88;;;1.40;;
45049;SDS011;61798;48.048;-1.928;2023-04-15T05:19:03;6.68;;;1.60;;
45049;SDS011;61798;48.048;-1.928;2023-04-15T05:21:10;6.03;;;1.60;;
45049;SDS011;61798;48.048;-1.928;2023-04-15T05:23:16;7.32;;;1.38;;
45049;SDS011;61798;48.048;-1.928;2023-04-15T05:25:23;6.07;;;1.25;;
45049;SDS011;61798;48.048;-1.928;2023-04-15T05:27:31;5.22;;;1.33;;
45049;SDS011;61798;48.048;-1.928;2023-04-15T05:29:38;7.10;;;1.15;;
45049;SDS011;61798;48.048;-1.928;2023-04-15T05:31:45;7.30;;;1.27;;
45049;SDS011;61798;48.048;-1.928;2023-04-15T05:33:52;7.63;;;1.90;;
45049;SDS011;61798;48.048;-1.928;2023-04-15T05:35:59;2.30;;;1.10;;
45049;SDS011;61798;48.048;-1.928;2023-04-15T05:38:07;5.72;;;1.52;;
45049;SDS011;61798;48.048;-1.928;2023-04-15T05:40:14;4.07;;;1.40;;
45049;SDS011;61798;48.048;-1.928;2023-04-15T05:42:21;6.97;;;2.08;;
45049;SDS011;61798;48.048;-1.928;2023-04-15T05:44:29;4.93;;;1.48;;
45049;SDS011;61798;48.048;-1.928;2023-04-15T05:46:37;4.55;;;1.70;;
45049;SDS011;61798;48.048;-1.928;2023-04-15T05:48:44;4.53;;;1.33;;
45049;SDS011;61798;48.048;-1.928;2023-04-15T05:50:51;5.60;;;1.60;;
45049;SDS011;61798;48.048;-1.928;2023-04-15T05:52:59;5.68;;;1.58;;
45049;SDS011;61798;48.048;-1.928;2023-04-15T05:55:07;5.85;;;1.40;;
45049;SDS011;61798;48.048;-1.928;2023-04-15T05:57:14;3.63;;;1.40;;
45049;SDS011;61798;48.048;-1.928;2023-04-15T05:59:23;7.40;;;1.33;;
45049;SDS011;61798;48.048;-1.928;2023-04-15T06:01:29;8.60;;;1.40;;
45049;SDS011;61798;48.048;-1.928;2023-04-15T06:03:36;4.57;;;1.15;;
45049;SDS011;61798;48.048;-1.928;2023-04-15T06:05:46;10.80;;;1.60;;
45049;SDS011;61798;48.048;-1.928;2023-04-15T06:07:54;5.85;;;1.45;;
45049;SDS011;61798;48.048;-1.928;2023-04-15T06:10:02;4.13;;;1.10;;
45049;SDS011;61798;48.048;-1.928;2023-04-15T06:12:09;4.43;;;1.50;;
45049;SDS011;61798;48.048;-1.928;2023-04-15T06:14:17;4.60;;;1.30;;
45049;SDS011;61798;48.048;-1.928;2023-04-15T06:16:24;5.13;;;1.17;;
45049;SDS011;61798;48.048;-1.928;2023-04-15T06:18:31;7.43;;;1.70;;
45049;SDS011;61798;48.048;-1.928;2023-04-15T06:20:39;6.93;;;1.58;;
45049;SDS011;61798;48.048;-1.928;2023-04-15T06:22:47;4.53;;;1.25;;
45049;SDS011;61798;48.048;-1.928;2023-04-15T06:24:53;8.30;;;1.40;;
45049;SDS011;61798;48.048;-1.928;2023-04-15T06:27:00;6.05;;;1.73;;
45049;SDS011;61798;48.048;-1.928;2023-04-15T06:29:07;12.00;;;1.60;;
45049;SDS011;61798;48.048;-1.928;2023-04-15T06:31:14;10.80;;;1.80;;
45049;SDS011;61798;48.048;-1.928;2023-04-15T06:33:21;9.75;;;2.50;;
45049;SDS011;61798;48.048;-1.928;2023-04-15T06:35:27;8.25;;;1.80;;
45049;SDS011;61798;48.048;-1.928;2023-04-15T06:37:34;6.90;;;1.58;;
45049;SDS011;61798;48.048;-1.928;2023-04-15T06:39:42;6.97;;;1.70;;
45049;SDS011;61798;48.048;-1.928;2023-04-15T06:41:50;5.30;;;1.83;;
45049;SDS011;61798;48.048;-1.928;2023-04-15T06:43:57;10.27;;;2.00;;
45049;SDS011;61798;48.048;-1.928;2023-04-15T06:46:04;6.95;;;1.77;;
45049;SDS011;61798;48.048;-1.928;2023-04-15T06:48:10;8.35;;;1.80;;
45049;SDS011;61798;48.048;-1.928;2023-04-15T06:50:18;7.32;;;1.88;;
45049;SDS011;61798;48.048;-1.928;2023-04-15T06:52:25;8.65;;;1.75;;
45049;SDS011;61798;48.048;-1.928;2023-04-15T06:54:31;7.20;;;1.55;;
45049;SDS011;61798;48.048;-1.928;2023-04-15T06:56:38;7.20;;;1.52;;
45049;SDS011;61798;48.048;-1.928;2023-04-15T06:58:43;5.72;;;1.60;;
45049;SDS011;61798;48.048;-1.928;2023-04-15T07:00:51;10.07;;;2.10;;
45049;SDS011;61798;48.048;-1.928;2023-04-15T07:02:58;6.40;;;1.60;;
45049;SDS011;61798;48.048;-1.928;2023-04-15T07:05:16;4.15;;;1.23;;
45049;SDS011;61798;48.048;-1.928;2023-04-15T07:07:25;7.43;;;2.10;;
45049;SDS011;61798;48.048;-1.928;2023-04-15T07:09:32;8.60;;;1.77;;
45049;SDS011;61798;48.048;-1.928;2023-04-15T07:11:38;9.00;;;1.80;;
45049;SDS011;61798;48.048;-1.928;2023-04-15T07:13:44;6.22;;;1.52;;
45049;SDS011;61798;48.048;-1.928;2023-04-15T07:15:50;6.97;;;1.90;;
45049;SDS011;61798;48.048;-1.928;2023-04-15T07:17:58;7.60;;;1.60;;
45049;SDS011;61798;48.048;-1.928;2023-04-15T07:20:05;8.70;;;1.67;;
45049;SDS011;61798;48.048;-1.928;2023-04-15T07:22:11;11.73;;;1.27;;
45049;SDS011;61798;48.048;-1.928;2023-04-15T07:24:17;15.32;;;1.70;;
45049;SDS011;61798;48.048;-1.928;2023-04-15T07:26:24;6.75;;;1.52;;
45049;SDS011;61798;48.048;-1.928;2023-04-15T07:28:30;8.50;;;1.75;;
45049;SDS011;61798;48.048;-1.928;2023-04-15T07:30:36;13.07;;;1.60;;
45049;SDS011;61798;48.048;-1.928;2023-04-15T07:32:42;11.38;;;2.33;;
45049;SDS011;61798;48.048;-1.928;2023-04-15T07:34:48;8.38;;;1.73;;
45049;SDS011;61798;48.048;-1.928;2023-04-15T07:36:54;13.27;;;1.98;;
45049;SDS011;61798;48.048;-1.928;2023-04-15T07:39:00;6.47;;;1.77;;
45049;SDS011;61798;48.048;-1.928;2023-04-15T07:41:07;9.98;;;1.73;;
45049;SDS011;61798;48.048;-1.928;2023-04-15T07:43:13;8.20;;;1.42;;
45049;SDS011;61798;48.048;-1.928;2023-04-15T07:45:20;4.82;;;1.60;;
45049;SDS011;61798;48.048;-1.928;2023-04-15T07:47:26;9.20;;;1.88;;
45049;SDS011;61798;48.048;-1.928;2023-04-15T07:49:33;14.65;;;2.25;;
45049;SDS011;61798;48.048;-1.928;2023-04-15T07:51:38;10.60;;;1.67;;
45049;SDS011;61798;48.048;-1.928;2023-04-15T07:53:46;9.18;;;1.48;;
45049;SDS011;61798;48.048;-1.928;2023-04-15T07:55:52;8.60;;;1.50;;
45049;SDS011;61798;48.048;-1.928;2023-04-15T07:58:00;8.75;;;1.90;;
45049;SDS011;61798;48.048;-1.928;2023-04-15T08:00:09;7.18;;;1.83;;
45049;SDS011;61798;48.048;-1.928;2023-04-15T08:02:17;10.32;;;1.60;;
45049;SDS011;61798;48.048;-1.928;2023-04-15T08:04:24;12.00;;;2.03;;
45049;SDS011;61798;48.048;-1.928;2023-04-15T08:06:31;9.20;;;1.80;;
45049;SDS011;61798;48.048;-1.928;2023-04-15T08:08:38;12.15;;;2.05;;
45049;SDS011;61798;48.048;-1.928;2023-04-15T08:10:45;8.90;;;1.40;;
45049;SDS011;61798;48.048;-1.928;2023-04-15T08:12:53;6.03;;;1.52;;
45049;SDS011;61798;48.048;-1.928;2023-04-15T08:15:00;7.50;;;1.55;;
45049;SDS011;61798;48.048;-1.928;2023-04-15T08:17:10;10.05;;;1.70;;
45049;SDS011;61798;48.048;-1.928;2023-04-15T08:19:17;9.35;;;1.67;;
45049;SDS011;61798;48.048;-1.928;2023-04-15T08:21:24;8.30;;;1.70;;
45049;SDS011;61798;48.048;-1.928;2023-04-15T08:23:33;6.60;;;2.20;;
45049;SDS011;61798;48.048;-1.928;2023-04-15T08:25:41;8.85;;;1.60;;
45049;SDS011;61798;48.048;-1.928;2023-04-15T08:27:48;7.18;;;1.80;;
45049;SDS011;61798;48.048;-1.928;2023-04-15T08:29:55;6.43;;;1.83;;
45049;SDS011;61798;48.048;-1.928;2023-04-15T08:32:02;2.92;;;1.55;;
45049;SDS011;61798;48.048;-1.928;2023-04-15T08:34:48;8.27;;;1.80;;
45049;SDS011;61798;48.048;-1.928;2023-04-15T08:37:27;10.20;;;1.60;;
45049;SDS011;61798;48.048;-1.928;2023-04-15T08:39:33;7.30;;;2.20;;
45049;SDS011;61798;48.048;-1.928;2023-04-15T08:41:40;5.82;;;1.83;;
45049;SDS011;61798;48.048;-1.928;2023-04-15T08:44:01;5.47;;;1.50;;
45049;SDS011;61798;48.048;-1.928;2023-04-15T08:46:09;6.82;;;1.73;;
45049;SDS011;61798;48.048;-1.928;2023-04-15T08:48:17;7.40;;;1.40;;
45049;SDS011;61798;48.048;-1.928;2023-04-15T08:50:24;11.82;;;2.03;;
45049;SDS011;61798;48.048;-1.928;2023-04-15T08:52:32;5.60;;;1.42;;
45049;SDS011;61798;48.048;-1.928;2023-04-15T08:54:39;4.28;;;1.58;;
45049;SDS011;61798;48.048;-1.928;2023-04-15T08:56:46;5.82;;;1.30;;
45049;SDS011;61798;48.048;-1.928;2023-04-15T08:58:53;3.53;;;1.30;;
45049;SDS011;61798;48.048;-1.928;2023-04-15T09:01:00;5.80;;;1.40;;
45049;SDS011;61798;48.048;-1.928;2023-04-15T09:03:06;9.10;;;1.45;;
45049;SDS011;61798;48.048;-1.928;2023-04-15T09:05:14;5.15;;;1.52;;
45049;SDS011;61798;48.048;-1.928;2023-04-15T09:07:20;6.20;;;1.20;;
45049;SDS011;61798;48.048;-1.928;2023-04-15T09:09:28;6.35;;;1.50;;
45049;SDS011;61798;48.048;-1.928;2023-04-15T09:11:33;5.22;;;1.65;;
45049;SDS011;61798;48.048;-1.928;2023-04-15T09:13:40;6.68;;;1.40;;
45049;SDS011;61798;48.048;-1.928;2023-04-15T09:15:47;7.13;;;1.15;;
45049;SDS011;61798;48.048;-1.928;2023-04-15T09:17:53;5.50;;;1.60;;
45049;SDS011;61798;48.048;-1.928;2023-04-15T09:20:09;6.97;;;1.40;;
45049;SDS011;61798;48.048;-1.928;2023-04-15T09:22:17;3.40;;;0.93;;
45049;SDS011;61798;48.048;-1.928;2023-04-15T09:24:27;3.50;;;1.30;;
45049;SDS011;61798;48.048;-1.928;2023-04-15T09:26:41;3.15;;;1.00;;
45049;SDS011;61798;48.048;-1.928;2023-04-15T09:28:47;6.82;;;1.25;;
45049;SDS011;61798;48.048;-1.928;2023-04-15T09:30:57;4.47;;;1.40;;
45049;SDS011;61798;48.048;-1.928;2023-04-15T09:33:04;5.75;;;1.08;;
45049;SDS011;61798;48.048;-1.928;2023-04-15T09:35:12;6.80;;;1.13;;
45049;SDS011;61798;48.048;-1.928;2023-04-15T09:37:27;4.50;;;1.17;;
45049;SDS011;61798;48.048;-1.928;2023-04-15T09:42:11;4.65;;;0.98;;
45049;SDS011;61798;48.048;-1.928;2023-04-15T09:44:24;4.13;;;1.10;;
45049;SDS011;61798;48.048;-1.928;2023-04-15T09:46:44;5.82;;;1.02;;
45049;SDS011;61798;48.048;-1.928;2023-04-15T09:49:06;3.85;;;1.20;;
45049;SDS011;61798;48.048;-1.928;2023-04-15T09:51:13;2.95;;;1.20;;
45049;SDS011;61798;48.048;-1.928;2023-04-15T09:53:20;1.83;;;1.10;;
45049;SDS011;61798;48.048;-1.928;2023-04-15T09:55:27;5.03;;;1.38;;
45049;SDS011;61798;48.048;-1.928;2023-04-15T09:57:39;3.85;;;1.30;;
45049;SDS011;61798;48.048;-1.928;2023-04-15T09:59:49;8.32;;;1.10;;
45049;SDS011;61798;48.048;-1.928;2023-04-15T10:01:57;8.18;;;1.42;;
45049;SDS011;61798;48.048;-1.928;2023-04-15T10:04:04;6.65;;;1.13;;
45049;SDS011;61798;48.048;-1.928;2023-04-15T10:06:12;5.13;;;0.93;;
45049;SDS011;61798;48.048;-1.928;2023-04-15T10:08:20;4.10;;;1.83;;
45049;SDS011;61798;48.048;-1.928;2023-04-15T10:10:28;2.72;;;0.93;;
45049;SDS011;61798;48.048;-1.928;2023-04-15T10:12:36;4.20;;;0.85;;
45049;SDS011;61798;48.048;-1.928;2023-04-15T10:14:42;2.30;;;0.80;;
45049;SDS011;61798;48.048;-1.928;2023-04-15T10:16:48;3.17;;;0.70;;
45049;SDS011;61798;48.048;-1.928;2023-04-15T10:18:56;4.80;;;1.38;;
45049;SDS011;61798;48.048;-1.928;2023-04-15T10:21:06;3.90;;;0.98;;
45049;SDS011;61798;48.048;-1.928;2023-04-15T10:23:14;4.20;;;0.68;;
45049;SDS011;61798;48.048;-1.928;2023-04-15T10:25:21;1.70;;;0.85;;
45049;SDS011;61798;48.048;-1.928;2023-04-15T10:27:28;1.70;;;0.80;;
45049;SDS011;61798;48.048;-1.928;2023-04-15T10:29:36;3.20;;;0.57;;
45049;SDS011;61798;48.048;-1.928;2023-04-15T10:31:42;4.13;;;1.00;;
45049;SDS011;61798;48.048;-1.928;2023-04-15T10:33:50;8.80;;;0.93;;
45049;SDS011;61798;48.048;-1.928;2023-04-15T10:35:57;1.80;;;0.57;;
45049;SDS011;61798;48.048;-1.928;2023-04-15T10:38:49;3.60;;;0.90;;
45049;SDS011;61798;48.048;-1.928;2023-04-15T10:40:37;5.23;;;1.80;;
45049;SDS011;61798;48.048;-1.928;2023-04-15T10:42:43;3.70;;;1.00;;
45049;SDS011;61798;48.048;-1.928;2023-04-15T10:44:51;2.90;;;1.17;;
45049;SDS011;61798;48.048;-1.928;2023-04-15T10:47:03;2.90;;;1.00;;
45049;SDS011;61798;48.048;-1.928;2023-04-15T10:49:16;7.00;;;1.38;;
45049;SDS011;61798;48.048;-1.928;2023-04-15T10:51:30;3.70;;;1.08;;
45049;SDS011;61798;48.048;-1.928;2023-04-15T10:53:36;1.77;;;0.70;;
45049;SDS011;61798;48.048;-1.928;2023-04-15T10:55:45;2.05;;;0.80;;
45049;SDS011;61798;48.048;-1.928;2023-04-15T10:57:53;3.17;;;1.02;;
45049;SDS011;61798;48.048;-1.928;2023-04-15T11:02:17;2.15;;;0.70;;
45049;SDS011;61798;48.048;-1.928;2023-04-15T11:07:07;4.28;;;0.80;;
45049;SDS011;61798;48.048;-1.928;2023-04-15T11:09:30;2.67;;;0.80;;
45049;SDS011;61798;48.048;-1.928;2023-04-15T11:14:17;2.72;;;0.60;;
45049;SDS011;61798;48.048;-1.928;2023-04-15T11:16:24;3.00;;;0.70;;
45049;SDS011;61798;48.048;-1.928;2023-04-15T11:18:32;2.13;;;0.90;;
45049;SDS011;61798;48.048;-1.928;2023-04-15T11:20:41;1.50;;;0.75;;
45049;SDS011;61798;48.048;-1.928;2023-04-15T11:22:54;1.90;;;0.70;;
45049;SDS011;61798;48.048;-1.928;2023-04-15T11:25:00;1.85;;;0.60;;
45049;SDS011;61798;48.048;-1.928;2023-04-15T11:27:06;2.13;;;0.80;;
45049;SDS011;61798;48.048;-1.928;2023-04-15T11:29:17;0.90;;;0.60;;
45049;SDS011;61798;48.048;-1.928;2023-04-15T11:31:25;2.10;;;0.45;;
45049;SDS011;61798;48.048;-1.928;2023-04-15T11:33:34;2.97;;;0.55;;
45049;SDS011;61798;48.048;-1.928;2023-04-15T11:35:41;2.15;;;0.80;;
45049;SDS011;61798;48.048;-1.928;2023-04-15T11:37:49;2.58;;;0.57;;
45049;SDS011;61798;48.048;-1.928;2023-04-15T11:39:56;1.15;;;0.65;;
45049;SDS011;61798;48.048;-1.928;2023-04-15T11:42:11;2.63;;;1.10;;
45049;SDS011;61798;48.048;-1.928;2023-04-15T11:44:22;1.45;;;0.55;;
45049;SDS011;61798;48.048;-1.928;2023-04-15T11:46:29;1.83;;;0.60;;
45049;SDS011;61798;48.048;-1.928;2023-04-15T11:48:40;1.10;;;0.60;;
45049;SDS011;61798;48.048;-1.928;2023-04-15T11:51:04;1.60;;;0.68;;
45049;SDS011;61798;48.048;-1.928;2023-04-15T11:53:12;2.30;;;0.60;;
45049;SDS011;61798;48.048;-1.928;2023-04-15T11:55:20;1.50;;;0.80;;
45049;SDS011;61798;48.048;-1.928;2023-04-15T11:57:30;1.20;;;0.57;;
45049;SDS011;61798;48.048;-1.928;2023-04-15T11:59:42;1.73;;;0.60;;
45049;SDS011;61798;48.048;-1.928;2023-04-15T12:01:49;1.50;;;0.80;;
45049;SDS011;61798;48.048;-1.928;2023-04-15T12:03:58;2.25;;;0.75;;
45049;SDS011;61798;48.048;-1.928;2023-04-15T12:06:24;2.10;;;0.60;;
45049;SDS011;61798;48.048;-1.928;2023-04-15T12:10:59;2.85;;;0.75;;
45049;SDS011;61798;48.048;-1.928;2023-04-15T12:13:05;1.25;;;0.60;;
45049;SDS011;61798;48.048;-1.928;2023-04-15T12:15:13;1.90;;;0.60;;
45049;SDS011;61798;48.048;-1.928;2023-04-15T12:17:19;1.52;;;0.70;;
45049;SDS011;61798;48.048;-1.928;2023-04-15T12:19:39;3.15;;;0.80;;
45049;SDS011;61798;48.048;-1.928;2023-04-15T12:21:47;2.10;;;1.10;;
45049;SDS011;61798;48.048;-1.928;2023-04-15T12:24:00;1.88;;;1.10;;
45049;SDS011;61798;48.048;-1.928;2023-04-15T12:26:09;3.50;;;0.90;;
45049;SDS011;61798;48.048;-1.928;2023-04-15T12:28:16;2.25;;;0.80;;
45049;SDS011;61798;48.048;-1.928;2023-04-15T12:30:23;6.40;;;0.80;;
45049;SDS011;61798;48.048;-1.928;2023-04-15T12:32:29;2.83;;;0.65;;
45049;SDS011;61798;48.048;-1.928;2023-04-15T12:34:49;3.22;;;0.90;;
45049;SDS011;61798;48.048;-1.928;2023-04-15T12:36:56;2.33;;;0.90;;
45049;SDS011;61798;48.048;-1.928;2023-04-15T12:39:05;2.38;;;0.77;;
45049;SDS011;61798;48.048;-1.928;2023-04-15T12:41:11;2.53;;;0.88;;
45049;SDS011;61798;48.048;-1.928;2023-04-15T12:43:18;1.52;;;0.93;;
45049;SDS011;61798;48.048;-1.928;2023-04-15T12:45:25;3.35;;;0.88;;
45049;SDS011;61798;48.048;-1.928;2023-04-15T12:47:32;1.92;;;0.52;;
45049;SDS011;61798;48.048;-1.928;2023-04-15T12:49:40;2.35;;;0.77;;
45049;SDS011;61798;48.048;-1.928;2023-04-15T12:51:51;3.58;;;1.02;;
45049;SDS011;61798;48.048;-1.928;2023-04-15T12:54:00;1.27;;;0.65;;